Belle Plaine, Kansas
Current Conditions -  °F | °C
As of 6:58 PM on Thursday 18 Dec 2014 (Local Time) from KIAB Reporting Station
Overcast Overcast  
Wind Chill: 28°   Ceiling: 800
Heat Index: 32°   Visibility: 10mi
Dew Point: 30°   Wind: 5mph
Humidity: 90%   Direction: 340°NNW
Pressure: 30.2"   Gusts: NA
Location:  37.39°N, 97.28°W
Report Text: KIAB 190058Z AUTO 34004KT 10SM OVC008 00/M01 A3020 RMK AO2 SLP242 T00021013
Loading
Personal Weather Stations






























Interactive Weather Map New forecast layout! Learn more

10-Day Weather Forecast

Advertisements
Track Severe Weather on mobile